createdAt,value
2022-12-23T00:01:51.999Z,100.00
2022-12-23T00:04:21.190Z,100.00
2022-12-23T00:06:49.898Z,100.00
2022-12-23T00:09:18.793Z,100.00
2022-12-23T00:12:13.096Z,100.00
2022-12-23T00:15:00.918Z,100.00
2022-12-23T00:17:29.597Z,100.00
2022-12-23T00:19:58.513Z,100.00
2022-12-23T00:22:46.853Z,100.00
2022-12-23T00:25:15.736Z,100.00
2022-12-23T00:28:01.758Z,100.00
2022-12-23T00:30:30.405Z,100.00
2022-12-23T00:32:58.971Z,100.00
2022-12-23T00:35:31.661Z,100.00
2022-12-23T00:38:00.457Z,100.00
2022-12-23T00:40:48.095Z,100.00
2022-12-23T00:43:17.201Z,100.00
2022-12-23T00:45:46.335Z,100.00
2022-12-23T00:48:34.113Z,100.00
2022-12-23T00:51:02.742Z,100.00
2022-12-23T00:53:31.497Z,100.00
2022-12-23T00:56:00.174Z,100.00
2022-12-23T00:58:29.582Z,100.00
2022-12-23T01:01:17.234Z,100.00
2022-12-23T01:04:04.523Z,100.00
2022-12-23T01:06:33.266Z,100.00
2022-12-23T01:09:02.194Z,100.00
2022-12-23T01:11:30.906Z,100.00
2022-12-23T01:13:59.665Z,100.00
2022-12-23T01:16:28.474Z,100.00
2022-12-23T01:18:57.460Z,100.00
2022-12-23T01:21:26.027Z,100.00
2022-12-23T01:23:54.723Z,100.00
2022-12-23T01:26:24.618Z,100.00
2022-12-23T01:28:57.298Z,100.00
2022-12-23T01:31:26.881Z,100.00
2022-12-23T01:33:56.120Z,100.00
2022-12-23T01:36:25.201Z,100.00
2022-12-23T01:38:56.336Z,100.00
2022-12-23T01:41:45.825Z,100.00
2022-12-23T01:44:52.336Z,100.00
2022-12-23T01:47:39.002Z,100.00
2022-12-23T01:50:28.565Z,100.00
2022-12-23T01:53:07.718Z,100.00
2022-12-23T01:55:40.848Z,100.00
2022-12-23T01:58:16.366Z,100.00
2022-12-23T02:01:03.987Z,100.00
2022-12-23T02:03:45.458Z,100.00
2022-12-23T02:06:52.742Z,100.00
2022-12-23T02:09:30.734Z,100.00
2022-12-23T02:12:09.790Z,100.00
2022-12-23T02:14:57.299Z,100.00
2022-12-23T02:17:30.598Z,100.00
2022-12-23T02:20:26.121Z,100.00
2022-12-23T02:23:16.401Z,100.00
2022-12-23T02:25:50.809Z,100.00
2022-12-23T02:28:38.337Z,100.00
2022-12-23T02:31:14.084Z,100.00
2022-12-23T02:34:01.923Z,100.00
2022-12-23T02:36:44.334Z,100.00
2022-12-23T02:39:34.608Z,100.00
2022-12-23T02:42:08.210Z,100.00
2022-12-23T02:44:45.617Z,100.00
2022-12-23T02:47:19.899Z,100.00
2022-12-23T02:49:52.045Z,100.00
2022-12-23T02:52:22.735Z,100.00
2022-12-23T02:54:54.683Z,100.00
2022-12-23T02:57:32.105Z,100.00
2022-12-23T03:00:03.478Z,100.00
2022-12-23T03:02:37.864Z,100.00
2022-12-23T03:05:24.853Z,100.00
2022-12-23T03:07:56.110Z,100.00
2022-12-23T03:10:44.975Z,100.00
2022-12-23T03:13:24.200Z,100.00
2022-12-23T03:16:02.860Z,100.00
2022-12-23T03:18:47.550Z,100.00
2022-12-23T03:21:35.309Z,100.00
2022-12-23T03:24:18.026Z,100.00
2022-12-23T03:26:55.120Z,100.00
2022-12-23T03:29:52.281Z,100.00
2022-12-23T03:32:22.907Z,100.00
2022-12-23T03:34:53.017Z,100.00
2022-12-23T03:37:23.459Z,100.00
2022-12-23T03:40:05.435Z,100.00
2022-12-23T03:42:37.017Z,100.00
2022-12-23T03:45:42.721Z,100.00
2022-12-23T03:48:52.299Z,100.00
2022-12-23T03:51:25.625Z,100.00
2022-12-23T03:54:01.787Z,100.00
2022-12-23T03:56:35.147Z,100.00
2022-12-23T03:59:27.677Z,100.00
2022-12-23T04:02:18.653Z,100.00
2022-12-23T04:04:50.442Z,100.00
2022-12-23T04:07:24.350Z,100.00
2022-12-23T04:09:53.763Z,100.00
2022-12-23T04:12:25.509Z,100.00
2022-12-23T04:14:54.016Z,100.00
2022-12-23T04:17:22.997Z,100.00
2022-12-23T04:19:52.680Z,100.00
2022-12-23T04:22:21.722Z,100.00
2022-12-23T04:24:50.271Z,100.00
2022-12-23T04:27:18.951Z,100.00
2022-12-23T04:29:47.645Z,100.00
2022-12-23T04:32:16.341Z,100.00
2022-12-23T04:34:45.018Z,100.00
2022-12-23T04:37:13.839Z,100.00
2022-12-23T04:39:42.565Z,100.00
2022-12-23T04:42:11.182Z,100.00
2022-12-23T04:44:39.984Z,100.00
2022-12-23T04:47:08.828Z,100.00
2022-12-23T04:49:37.546Z,100.00
2022-12-23T04:52:06.637Z,100.00
2022-12-23T04:54:37.199Z,100.00
2022-12-23T04:57:09.426Z,100.00
2022-12-23T04:59:38.219Z,100.00
2022-12-23T05:02:07.610Z,100.00
2022-12-23T05:04:36.558Z,100.00
2022-12-23T05:07:06.441Z,100.00
2022-12-23T05:09:35.329Z,100.00
2022-12-23T05:12:04.845Z,100.00
2022-12-23T05:14:33.404Z,100.00
2022-12-23T05:17:07.061Z,100.00
2022-12-23T05:19:36.212Z,100.00
2022-12-23T05:22:05.109Z,100.00
2022-12-23T05:24:33.810Z,100.00
2022-12-23T05:27:02.328Z,100.00
2022-12-23T05:29:31.976Z,100.00
2022-12-23T05:32:00.598Z,100.00
2022-12-23T05:34:29.248Z,100.00
2022-12-23T05:36:58.341Z,100.00
2022-12-23T05:39:27.109Z,100.00
2022-12-23T05:41:58.042Z,100.00
2022-12-23T05:44:26.548Z,100.00
2022-12-23T05:46:55.227Z,100.00
2022-12-23T05:49:24.034Z,100.00
2022-12-23T05:51:52.591Z,100.00
2022-12-23T05:54:21.577Z,100.00
2022-12-23T05:56:50.268Z,100.00
2022-12-23T05:59:18.845Z,100.00
2022-12-23T06:01:47.622Z,100.00
2022-12-23T06:04:16.616Z,100.00
2022-12-23T06:06:46.359Z,100.00
2022-12-23T06:09:15.042Z,100.00
2022-12-23T06:11:43.724Z,100.00
2022-12-23T06:14:12.741Z,100.00
2022-12-23T06:16:43.422Z,100.00
2022-12-23T06:19:12.238Z,100.00
2022-12-23T06:21:41.944Z,100.00
2022-12-23T06:24:10.519Z,100.00
2022-12-23T06:26:39.428Z,100.00
2022-12-23T06:29:08.298Z,100.00
2022-12-23T06:31:36.934Z,100.00
2022-12-23T06:34:05.667Z,100.00
2022-12-23T06:36:37.232Z,100.00
2022-12-23T06:39:08.158Z,100.00
2022-12-23T06:41:36.864Z,100.00
2022-12-23T06:44:06.230Z,100.00
2022-12-23T06:46:35.253Z,100.00
2022-12-23T06:49:07.665Z,100.00
2022-12-23T06:51:41.958Z,100.00
2022-12-23T06:54:15.042Z,100.00
2022-12-23T06:56:43.831Z,100.00
2022-12-23T06:59:12.919Z,100.00
2022-12-23T07:01:41.899Z,100.00
2022-12-23T07:04:10.898Z,100.00
2022-12-23T07:06:40.300Z,100.00
2022-12-23T07:09:09.098Z,100.00
2022-12-23T07:11:37.967Z,100.00
2022-12-23T07:14:06.664Z,100.00
2022-12-23T07:16:35.509Z,100.00
2022-12-23T07:19:05.679Z,100.00
2022-12-23T07:21:35.077Z,100.00
2022-12-23T07:24:04.528Z,100.00
2022-12-23T07:26:33.586Z,100.00
2022-12-23T07:29:02.769Z,100.00
2022-12-23T07:31:31.602Z,100.00
2022-12-23T07:34:00.695Z,100.00
2022-12-23T07:36:30.794Z,100.00
2022-12-23T07:38:59.763Z,100.00
2022-12-23T07:41:28.760Z,100.00
2022-12-23T07:43:58.664Z,100.00
2022-12-23T07:46:27.893Z,100.00
2022-12-23T07:48:57.616Z,100.00
2022-12-23T07:51:26.359Z,100.00
2022-12-23T07:53:55.545Z,100.00
2022-12-23T07:56:24.661Z,100.00
2022-12-23T07:58:54.285Z,100.00
2022-12-23T08:01:24.018Z,100.00
2022-12-23T08:03:53.141Z,100.00
2022-12-23T08:06:23.216Z,100.00
2022-12-23T08:08:52.887Z,100.00
2022-12-23T08:11:21.681Z,100.00
2022-12-23T08:13:53.142Z,100.00
2022-12-23T08:16:22.469Z,100.00
2022-12-23T08:18:53.557Z,100.00
2022-12-23T08:21:23.478Z,100.00
2022-12-23T08:23:52.546Z,100.00
2022-12-23T08:26:24.365Z,100.00
2022-12-23T08:28:54.251Z,100.00
2022-12-23T08:31:26.176Z,100.00
2022-12-23T08:33:57.299Z,100.00
2022-12-23T08:36:30.152Z,100.00
2022-12-23T08:39:00.568Z,100.00
2022-12-23T08:41:32.067Z,100.00
2022-12-23T08:44:00.732Z,100.00
2022-12-23T08:46:29.640Z,100.00
2022-12-23T08:48:59.298Z,100.00
2022-12-23T08:51:29.473Z,100.00
2022-12-23T08:54:01.046Z,100.00
2022-12-23T08:56:35.817Z,100.00
2022-12-23T08:59:04.804Z,100.00
2022-12-23T09:01:35.716Z,100.00
2022-12-23T09:04:08.003Z,100.00
2022-12-23T09:06:43.323Z,100.00
2022-12-23T09:09:14.655Z,100.00
2022-12-23T09:11:43.943Z,100.00
2022-12-23T09:14:12.778Z,100.00
2022-12-23T09:16:41.657Z,100.00
2022-12-23T09:19:10.660Z,100.00
2022-12-23T09:21:39.454Z,100.00
2022-12-23T09:24:08.352Z,100.00
2022-12-23T09:26:37.223Z,100.00
2022-12-23T09:29:05.910Z,100.00
2022-12-23T09:31:37.722Z,100.00
2022-12-23T09:34:07.201Z,100.00
2022-12-23T09:36:35.973Z,100.00
2022-12-23T09:39:04.701Z,100.00
2022-12-23T09:42:01.889Z,100.00
2022-12-23T09:44:56.220Z,100.00
2022-12-23T09:47:27.503Z,100.00
2022-12-23T09:50:01.678Z,100.00
2022-12-23T09:52:39.805Z,100.00
2022-12-23T09:55:11.407Z,100.00
2022-12-23T09:57:48.493Z,100.00
2022-12-23T10:00:22.343Z,100.00
2022-12-23T10:02:55.103Z,100.00
2022-12-23T10:05:42.299Z,100.00
2022-12-23T10:08:38.778Z,100.00
2022-12-23T10:11:31.905Z,100.00
2022-12-23T10:14:10.926Z,100.00
2022-12-23T10:16:43.781Z,100.00
2022-12-23T10:19:24.377Z,100.00
2022-12-23T10:21:56.821Z,100.00
2022-12-23T10:24:34.539Z,100.00
2022-12-23T10:27:40.942Z,100.00
2022-12-23T10:30:42.711Z,100.00
2022-12-23T10:33:25.302Z,100.00
2022-12-23T10:35:58.236Z,100.00
2022-12-23T10:38:54.610Z,100.00
2022-12-23T10:41:42.860Z,100.00
2022-12-23T10:44:20.655Z,100.00
2022-12-23T10:47:25.204Z,100.00
2022-12-23T10:50:12.698Z,100.00
2022-12-23T10:52:43.139Z,100.00
2022-12-23T10:55:29.860Z,100.00
2022-12-23T10:58:17.905Z,100.00
2022-12-23T11:00:51.647Z,100.00
2022-12-23T11:03:33.885Z,100.00
2022-12-23T11:06:04.819Z,100.00
2022-12-23T11:08:33.708Z,100.00
2022-12-23T11:11:02.431Z,100.00
2022-12-23T11:13:37.562Z,100.00
2022-12-23T11:16:20.084Z,100.00
2022-12-23T11:18:57.630Z,100.00
2022-12-23T11:21:28.059Z,100.00
2022-12-23T11:24:19.166Z,100.00
2022-12-23T11:26:50.421Z,100.00
2022-12-23T11:29:39.782Z,100.00
2022-12-23T11:32:28.142Z,100.00
2022-12-23T11:34:57.134Z,100.00
2022-12-23T11:37:31.031Z,100.00
2022-12-23T11:39:59.817Z,100.00
2022-12-23T11:42:29.995Z,100.00
2022-12-23T11:45:01.594Z,100.00
2022-12-23T11:47:39.307Z,100.00
2022-12-23T11:50:36.139Z,100.00
2022-12-23T11:53:21.402Z,100.00
2022-12-23T11:56:06.950Z,100.00
2022-12-23T11:58:45.524Z,100.00
2022-12-23T12:01:20.641Z,100.00
2022-12-23T12:04:01.980Z,100.00
2022-12-23T12:06:31.982Z,100.00
2022-12-23T12:09:01.958Z,100.00
2022-12-23T12:11:40.398Z,100.00
2022-12-23T12:14:09.589Z,100.00
2022-12-23T12:16:57.597Z,100.00
2022-12-23T12:19:30.630Z,100.00
2022-12-23T12:22:06.738Z,100.00
2022-12-23T12:24:49.701Z,100.00
2022-12-23T12:27:19.724Z,100.00
2022-12-23T12:29:56.490Z,99.91
2022-12-23T12:32:36.008Z,99.99
2022-12-23T12:35:15.661Z,99.83
2022-12-23T12:37:54.067Z,99.79
2022-12-23T12:40:37.516Z,99.75
2022-12-23T12:43:33.104Z,99.91
2022-12-23T12:46:29.601Z,99.98
2022-12-23T12:49:45.341Z,99.98
2022-12-23T12:52:17.840Z,99.38
2022-12-23T12:55:07.288Z,99.28
2022-12-23T12:57:37.206Z,98.86
2022-12-23T13:00:15.818Z,99.07
2022-12-23T13:03:09.999Z,99.39
2022-12-23T13:06:20.355Z,99.41
2022-12-23T13:09:22.039Z,99.53
2022-12-23T13:12:16.116Z,99.84
2022-12-23T13:15:08.681Z,99.92
2022-12-23T13:18:01.786Z,99.97
2022-12-23T13:20:43.489Z,99.84
2022-12-23T13:23:43.933Z,99.69
2022-12-23T13:26:47.128Z,99.36
2022-12-23T13:29:40.903Z,99.34
2022-12-23T13:32:27.302Z,99.42
2022-12-23T13:35:03.946Z,99.38
2022-12-23T13:37:42.280Z,99.21
2022-12-23T13:40:28.577Z,99.48
2022-12-23T13:43:02.704Z,98.86
2022-12-23T13:45:37.128Z,98.61
2022-12-23T13:48:05.899Z,98.94
2022-12-23T13:50:39.180Z,98.79
2022-12-23T13:53:29.983Z,98.53
2022-12-23T13:56:12.304Z,98.12
2022-12-23T13:58:41.456Z,98.07
2022-12-23T14:01:10.083Z,98.09
2022-12-23T14:03:39.917Z,98.18
2022-12-23T14:06:24.039Z,98.33
2022-12-23T14:08:54.592Z,98.16
2022-12-23T14:11:33.505Z,98.21
2022-12-23T14:14:06.798Z,98.44
2022-12-23T14:17:11.487Z,98.66
2022-12-23T14:19:56.807Z,98.94
2022-12-23T14:22:50.076Z,99.23
2022-12-23T14:25:40.562Z,99.18
2022-12-23T14:28:36.168Z,99.42
2022-12-23T14:31:06.852Z,99.87
2022-12-23T14:33:38.397Z,100.00
2022-12-23T14:36:26.453Z,100.00
2022-12-23T14:39:13.396Z,100.00
2022-12-23T14:41:53.240Z,100.00
2022-12-23T14:44:37.418Z,100.00
2022-12-23T14:47:33.973Z,100.00
2022-12-23T14:50:35.090Z,100.00
2022-12-23T14:53:23.947Z,100.00
2022-12-23T14:56:11.127Z,100.00
2022-12-23T14:58:52.354Z,100.00
2022-12-23T15:01:36.582Z,100.00
2022-12-23T15:04:51.451Z,100.00
2022-12-23T15:07:38.279Z,100.00
2022-12-23T15:10:14.585Z,100.00
2022-12-23T15:12:46.714Z,100.00
2022-12-23T15:15:21.678Z,100.00
2022-12-23T15:18:05.187Z,100.00
2022-12-23T15:20:35.604Z,100.00
2022-12-23T15:23:14.719Z,100.00
2022-12-23T15:25:45.272Z,100.00
2022-12-23T15:28:32.288Z,100.00
2022-12-23T15:31:02.278Z,100.00
2022-12-23T15:34:02.212Z,100.00
2022-12-23T15:36:31.033Z,100.00
2022-12-23T15:39:02.091Z,100.00
2022-12-23T15:41:32.347Z,100.00
2022-12-23T15:44:02.001Z,100.00
2022-12-23T15:46:32.564Z,100.00
2022-12-23T15:52:15.243Z,100.00
2022-12-23T15:55:14.302Z,100.00
2022-12-23T15:57:49.713Z,100.00
2022-12-23T16:00:40.891Z,100.00
2022-12-23T16:03:37.593Z,100.00
2022-12-23T16:06:17.560Z,100.00
2022-12-23T16:08:48.954Z,100.00
2022-12-23T16:11:20.366Z,100.00
2022-12-23T16:14:00.451Z,100.00
2022-12-23T16:16:39.722Z,100.00
2022-12-23T16:19:45.717Z,100.00
2022-12-23T16:22:20.543Z,100.00
2022-12-23T16:24:57.931Z,100.00
2022-12-23T16:27:55.099Z,100.00
2022-12-23T16:30:31.952Z,100.00
2022-12-23T16:33:04.029Z,100.00
2022-12-23T16:35:37.893Z,100.00
2022-12-23T16:38:24.954Z,100.00
2022-12-23T16:40:56.063Z,100.00
2022-12-23T16:43:25.703Z,100.00
2022-12-23T16:45:56.057Z,100.00
2022-12-23T16:48:36.476Z,100.00
2022-12-23T16:51:08.318Z,100.00
2022-12-23T16:53:37.040Z,100.00
2022-12-23T16:56:29.472Z,100.00
2022-12-23T16:58:58.164Z,100.00
2022-12-23T17:01:30.646Z,100.00
2022-12-23T17:03:59.422Z,100.00
2022-12-23T17:06:28.202Z,100.00
2022-12-23T17:08:57.753Z,100.00
2022-12-23T17:11:37.241Z,100.00
2022-12-23T17:14:15.543Z,100.00
2022-12-23T17:16:46.366Z,100.00
2022-12-23T17:19:15.700Z,100.00
2022-12-23T17:21:45.815Z,100.00
2022-12-23T17:24:23.835Z,100.00
2022-12-23T17:26:54.158Z,100.00
2022-12-23T17:29:23.125Z,100.00
2022-12-23T17:31:53.294Z,100.00
2022-12-23T17:34:24.262Z,100.00
2022-12-23T17:36:53.475Z,100.00
2022-12-23T17:39:23.421Z,100.00
2022-12-23T17:41:52.304Z,100.00
2022-12-23T17:44:21.163Z,100.00
2022-12-23T17:46:50.161Z,100.00
2022-12-23T17:49:19.900Z,100.00
2022-12-23T17:51:48.610Z,100.00
2022-12-23T17:54:23.339Z,100.00
2022-12-23T17:56:52.894Z,100.00
2022-12-23T17:59:22.026Z,100.00
2022-12-23T18:01:51.317Z,100.00
2022-12-23T18:04:21.434Z,100.00
2022-12-23T18:06:53.074Z,100.00
2022-12-23T18:09:21.981Z,100.00
2022-12-23T18:11:51.978Z,100.00
2022-12-23T18:14:29.759Z,100.00
2022-12-23T18:16:59.557Z,100.00
2022-12-23T18:19:28.588Z,100.00
2022-12-23T18:21:57.286Z,100.00
2022-12-23T18:24:28.419Z,100.00
2022-12-23T18:26:57.210Z,100.00
2022-12-23T18:29:25.985Z,100.00
2022-12-23T18:31:55.075Z,100.00
2022-12-23T18:34:24.677Z,100.00
2022-12-23T18:36:53.347Z,100.00
2022-12-23T18:39:22.364Z,100.00
2022-12-23T18:41:51.160Z,100.00
2022-12-23T18:44:22.022Z,100.00
2022-12-23T18:46:51.057Z,100.00
2022-12-23T18:49:22.118Z,100.00
2022-12-23T18:51:50.820Z,100.00
2022-12-23T18:54:19.807Z,100.00
2022-12-23T18:56:49.617Z,100.00
2022-12-23T18:59:27.519Z,100.00
2022-12-23T19:01:59.438Z,100.00
2022-12-23T19:04:28.901Z,100.00
2022-12-23T19:06:58.387Z,100.00
2022-12-23T19:09:26.869Z,100.00
2022-12-23T19:11:56.512Z,100.00
2022-12-23T19:14:25.681Z,100.00
2022-12-23T19:16:54.564Z,100.00
2022-12-23T19:19:23.464Z,100.00
2022-12-23T19:21:52.358Z,100.00
2022-12-23T19:24:21.647Z,100.00
2022-12-23T19:26:50.762Z,100.00
2022-12-23T19:29:19.526Z,100.00
2022-12-23T19:31:48.426Z,100.00
2022-12-23T19:34:17.218Z,100.00
2022-12-23T19:36:46.570Z,100.00
2022-12-23T19:39:17.412Z,100.00
2022-12-23T19:41:46.551Z,100.00
2022-12-23T19:44:15.535Z,100.00
2022-12-23T19:46:44.561Z,100.00
2022-12-23T19:49:19.556Z,100.00
2022-12-23T19:51:50.367Z,100.00
2022-12-23T19:54:19.599Z,100.00
2022-12-23T19:56:51.627Z,100.00
2022-12-23T19:59:22.297Z,100.00
2022-12-23T20:01:52.407Z,100.00
2022-12-23T20:04:25.289Z,100.00
2022-12-23T20:06:54.607Z,100.00
2022-12-23T20:09:23.580Z,100.00
2022-12-23T20:11:52.480Z,100.00
2022-12-23T20:14:22.461Z,100.00
2022-12-23T20:16:53.088Z,100.00
2022-12-23T20:19:22.979Z,100.00
2022-12-23T20:21:52.563Z,100.00
2022-12-23T20:24:22.264Z,100.00
2022-12-23T20:26:51.658Z,100.00
2022-12-23T20:29:20.757Z,100.00
2022-12-23T20:31:50.528Z,100.00
2022-12-23T20:34:20.998Z,100.00
2022-12-23T20:36:50.841Z,100.00
2022-12-23T20:39:20.092Z,100.00
2022-12-23T20:41:48.799Z,100.00
2022-12-23T20:44:34.634Z,100.00
2022-12-23T20:47:06.438Z,100.00
2022-12-23T20:49:35.108Z,100.00
2022-12-23T20:52:04.642Z,100.00
2022-12-23T20:54:34.098Z,100.00
2022-12-23T20:57:04.167Z,100.00
2022-12-23T20:59:33.889Z,100.00
2022-12-23T21:02:02.613Z,100.00
2022-12-23T21:04:31.940Z,100.00
2022-12-23T21:07:00.520Z,100.00
2022-12-23T21:09:29.528Z,100.00
2022-12-23T21:11:58.219Z,100.00
2022-12-23T21:14:27.608Z,100.00
2022-12-23T21:16:56.489Z,100.00
2022-12-23T21:19:26.228Z,100.00
2022-12-23T21:21:55.031Z,100.00
2022-12-23T21:24:24.314Z,100.00
2022-12-23T21:26:57.051Z,100.00
2022-12-23T21:29:26.709Z,100.00
2022-12-23T21:31:55.712Z,100.00
2022-12-23T21:34:24.683Z,100.00
2022-12-23T21:36:53.732Z,100.00
2022-12-23T21:39:22.875Z,100.00
2022-12-23T21:41:53.197Z,100.00
2022-12-23T21:44:21.893Z,100.00
2022-12-23T21:46:51.936Z,100.00
2022-12-23T21:49:21.073Z,100.00
2022-12-23T21:51:50.912Z,100.00
2022-12-23T21:54:21.021Z,100.00
2022-12-23T21:56:50.028Z,100.00
2022-12-23T21:59:18.992Z,100.00
2022-12-23T22:01:48.028Z,100.00
2022-12-23T22:04:16.779Z,100.00
2022-12-23T22:06:46.301Z,100.00
2022-12-23T22:09:18.875Z,100.00
2022-12-23T22:11:48.578Z,100.00
2022-12-23T22:14:19.024Z,100.00
2022-12-23T22:16:47.854Z,100.00
2022-12-23T22:19:17.083Z,100.00
2022-12-23T22:21:45.571Z,100.00
2022-12-23T22:24:14.355Z,100.00
2022-12-23T22:26:43.347Z,100.00
2022-12-23T22:29:12.638Z,100.00
2022-12-23T22:31:49.771Z,100.00
2022-12-23T22:34:22.940Z,100.00
2022-12-23T22:36:51.859Z,100.00
2022-12-23T22:39:21.964Z,100.00
2022-12-23T22:41:51.899Z,100.00
2022-12-23T22:44:22.613Z,100.00
2022-12-23T22:46:51.479Z,100.00
2022-12-23T22:49:20.259Z,100.00
2022-12-23T22:51:49.044Z,100.00
2022-12-23T22:54:17.632Z,100.00
2022-12-23T22:56:46.815Z,100.00
2022-12-23T22:59:21.245Z,100.00
2022-12-23T23:01:51.320Z,100.00
2022-12-23T23:04:20.483Z,100.00
2022-12-23T23:06:49.654Z,100.00
2022-12-23T23:09:20.775Z,100.00
2022-12-23T23:11:50.555Z,100.00
2022-12-23T23:14:20.704Z,100.00
2022-12-23T23:16:49.594Z,100.00
2022-12-23T23:19:20.815Z,100.00
2022-12-23T23:21:49.860Z,100.00
2022-12-23T23:24:18.427Z,100.00
2022-12-23T23:26:47.521Z,100.00
2022-12-23T23:29:16.215Z,100.00
2022-12-23T23:31:45.226Z,100.00
2022-12-23T23:34:14.715Z,100.00
2022-12-23T23:36:43.499Z,100.00
2022-12-23T23:39:12.894Z,100.00
2022-12-23T23:41:41.985Z,100.00
2022-12-23T23:44:11.613Z,100.00
2022-12-23T23:46:40.276Z,100.00
2022-12-23T23:49:08.894Z,100.00
2022-12-23T23:51:38.090Z,100.00
2022-12-23T23:54:06.810Z,100.00
2022-12-23T23:56:38.563Z,100.00
2022-12-23T23:59:08.818Z,100.00
